Time;durP1;ratioP1;P1;durP2;ratioP2;P2;SDS_P1;SDS_P2;PMS_P1;PMS_P2;Temp;Humidity;BMP_temperature;BMP_pressure;BME280_temperature;BME280_humidity;BME280_pressure;Samples;Min_cycle;Max_cycle;Signal;HPM_P1;HPM_P2
2023/03/10 00:01:10;;;;;;;0.20;0.20;;;;;;;5.39;74.60;98915.09;5052108;28;20441;-87
2023/03/10 00:03:36;;;;;;;0.20;0.20;;;;;;;5.40;74.13;98908.97;5051295;28;20017;-84
2023/03/10 00:06:03;;;;;;;0.10;0.10;;;;;;;5.44;74.26;98915.81;5049659;28;20021;-84
2023/03/10 00:08:29;;;;;;;0.35;0.35;;;;;;;5.50;74.49;98914.78;5052790;28;20418;-85
2023/03/10 00:10:55;;;;;;;0.10;0.10;;;;;;;5.54;73.99;98915.56;5048614;28;20128;-84
2023/03/10 00:13:21;;;;;;;0.38;0.38;;;;;;;5.50;73.92;98905.13;5053225;28;20020;-85
2023/03/10 00:15:48;;;;;;;0.10;0.10;;;;;;;5.48;73.99;98908.72;5052077;28;20120;-85
2023/03/10 00:18:14;;;;;;;0.10;0.10;;;;;;;5.51;73.94;98901.59;5046813;28;20024;-86
2023/03/10 00:20:40;;;;;;;0.20;0.20;;;;;;;5.53;73.82;98893.66;5052959;28;20037;-86
2023/03/10 00:23:06;;;;;;;0.20;0.20;;;;;;;5.53;74.00;98885.78;5067823;28;20377;-87
2023/03/10 00:25:32;;;;;;;0.15;0.15;;;;;;;5.55;73.72;98893.66;5068177;28;20043;-90
2023/03/10 00:27:58;;;;;;;0.10;0.10;;;;;;;5.50;73.76;98881.50;5069773;28;20029;-88
2023/03/10 00:30:24;;;;;;;0.13;0.13;;;;;;;5.55;73.85;98891.03;5073140;28;20032;-87
2023/03/10 00:32:50;;;;;;;0.10;0.10;;;;;;;5.58;73.97;98885.66;5072512;28;20037;-91
2023/03/10 00:35:16;;;;;;;0.63;0.63;;;;;;;5.60;74.08;98886.47;5072642;28;20033;-91
2023/03/10 00:37:43;;;;;;;0.20;0.20;;;;;;;5.62;73.73;98882.91;5071567;28;20101;-88
2023/03/10 00:40:11;;;;;;;0.20;0.20;;;;;;;5.63;73.86;98891.63;5061008;28;20037;-87
2023/03/10 00:42:37;;;;;;;0.10;0.10;;;;;;;5.65;74.01;98887.19;5067390;28;20021;-87
2023/03/10 00:45:03;;;;;;;0.57;0.57;;;;;;;5.67;73.84;98888.00;5063696;28;20025;-88
2023/03/10 00:47:29;;;;;;;0.10;0.10;;;;;;;5.68;73.92;98887.09;5060257;28;20028;-87
2023/03/10 00:49:55;;;;;;;0.10;0.10;;;;;;;5.70;73.82;98890.53;5059856;28;20060;-88
2023/03/10 00:52:22;;;;;;;0.30;0.30;;;;;;;5.68;73.97;98894.97;5059835;28;20056;-87
2023/03/10 00:54:48;;;;;;;0.22;0.22;;;;;;;5.69;73.99;98898.47;5057792;28;20506;-86
2023/03/10 00:57:14;;;;;;;0.10;0.10;;;;;;;5.67;73.97;98890.66;5056760;28;20394;-89
2023/03/10 00:59:40;;;;;;;0.10;0.10;;;;;;;5.68;74.02;98887.09;5058692;28;20033;-90
2023/03/10 01:02:06;;;;;;;0.20;0.20;;;;;;;5.66;74.03;98888.91;5058074;28;20108;-90
2023/03/10 01:04:32;;;;;;;0.20;0.20;;;;;;;5.69;73.70;98880.94;5055070;28;20033;-89
2023/03/10 01:06:59;;;;;;;0.10;0.10;;;;;;;5.66;73.70;98878.41;5056196;28;20033;-87
2023/03/10 01:09:25;;;;;;;0.17;0.17;;;;;;;5.63;73.96;98873.22;5056800;28;20089;-89
2023/03/10 01:11:51;;;;;;;0.28;0.28;;;;;;;5.65;73.71;98879.31;5056361;28;20048;-87
2023/03/10 01:14:18;;;;;;;0.10;0.10;;;;;;;5.63;73.97;98868.84;5057777;28;20107;-86
2023/03/10 01:16:44;;;;;;;0.10;0.10;;;;;;;5.59;73.90;98861.97;5057169;28;20120;-86
2023/03/10 01:19:10;;;;;;;0.10;0.10;;;;;;;5.59;73.66;98858.50;5052438;28;20186;-86
2023/03/10 01:21:38;;;;;;;0.10;0.10;;;;;;;5.59;73.78;98850.59;5056580;28;20024;-88
2023/03/10 01:24:05;;;;;;;0.10;0.10;;;;;;;5.58;73.83;98849.75;5056388;28;20103;-87
2023/03/10 01:26:32;;;;;;;0.10;0.10;;;;;;;5.50;73.89;98851.75;5055598;28;20503;-84
2023/03/10 01:28:58;;;;;;;0.20;0.20;;;;;;;5.55;73.76;98849.00;5055807;28;20025;-84
2023/03/10 01:31:24;;;;;;;0.60;0.60;;;;;;;5.53;73.69;98846.38;5056147;28;20057;-85
2023/03/10 01:33:50;;;;;;;4.90;2.80;;;;;;;5.54;73.80;98847.28;5052011;28;20025;-84
2023/03/10 01:36:20;;;;;;;0.20;0.20;;;;;;;5.51;74.05;98849.06;5055320;28;20545;-86
2023/03/10 01:38:48;;;;;;;0.10;0.10;;;;;;;5.49;73.96;98840.38;5048095;28;20040;-84
2023/03/10 01:41:14;;;;;;;0.10;0.10;;;;;;;5.54;74.04;98834.13;5055951;28;20028;-85
2023/03/10 01:43:44;;;;;;;0.15;0.15;;;;;;;5.54;73.78;98831.50;5058074;28;20178;-85
2023/03/10 01:49:33;;;;;;;0.10;0.10;;;;;;;5.56;74.00;98825.28;5104942;27;20366;-85
2023/03/10 01:52:05;;;;;;;0.20;0.20;;;;;;;5.52;74.14;98821.06;5111636;28;20063;-84
2023/03/10 01:54:48;;;;;;;0.20;0.20;;;;;;;5.56;73.95;98820.03;5103068;28;20483;-85
2023/03/10 01:57:19;;;;;;;0.57;0.57;;;;;;;5.49;73.94;98826.38;5075550;28;20017;-85
2023/03/10 01:59:45;;;;;;;0.65;0.65;;;;;;;5.45;74.02;98816.91;5073567;28;20404;-85
2023/03/10 02:02:11;;;;;;;0.85;0.85;;;;;;;5.45;74.20;98817.75;5071496;28;20077;-86
2023/03/10 02:04:43;;;;;;;0.20;0.20;;;;;;;5.48;74.25;98812.41;5069675;28;20024;-86
2023/03/10 02:07:10;;;;;;;0.20;0.20;;;;;;;5.51;74.03;98809.66;5069590;28;20021;-86
2023/03/10 02:09:41;;;;;;;0.10;0.10;;;;;;;5.53;74.72;98808.78;5068452;28;20507;-86
2023/03/10 02:12:09;;;;;;;0.20;0.20;;;;;;;5.53;74.70;98803.50;5068997;28;20041;-85
2023/03/10 02:14:35;;;;;;;0.20;0.20;;;;;;;5.56;74.28;98801.66;5067642;28;20499;-85
2023/03/10 02:17:06;;;;;;;0.20;0.20;;;;;;;5.56;74.10;98793.78;5070309;28;20518;-84
2023/03/10 02:22:11;;;;;;;0.10;0.10;;;;;;;5.54;74.34;98790.31;5077757;27;1877939;-83
2023/03/10 02:24:48;;;;;;;0.13;0.13;;;;;;;5.59;74.30;98787.56;5105804;28;20028;-84
2023/03/10 02:30:11;;;;;;;0.70;0.70;;;;;;;5.54;74.18;98771.09;5061461;27;1953390;-84
2023/03/10 02:32:42;;;;;;;0.10;0.10;;;;;;;5.58;74.28;98770.06;5127458;27;20027;-84
2023/03/10 02:35:08;;;;;;;0.95;0.95;;;;;;;5.59;74.34;98777.03;5116393;28;20064;-83
2023/03/10 02:37:36;;;;;;;0.20;0.20;;;;;;;5.59;74.05;98767.38;5113273;28;20032;-83
2023/03/10 02:40:04;;;;;;;0.10;0.10;;;;;;;5.59;74.08;98766.53;5111955;28;20024;-82
2023/03/10 02:42:33;;;;;;;0.10;0.10;;;;;;;5.62;74.39;98769.06;5119082;28;20499;-83
2023/03/10 02:45:02;;;;;;;0.20;0.20;;;;;;;5.63;74.10;98770.78;5112542;28;20023;-81
2023/03/10 02:47:28;;;;;;;0.10;0.10;;;;;;;5.66;74.06;98768.06;5113395;28;20489;-82
2023/03/10 02:49:54;;;;;;;0.10;0.10;;;;;;;5.61;74.09;98756.84;5113525;28;20466;-82
2023/03/10 02:52:43;;;;;;;0.20;0.20;;;;;;;5.70;74.07;98761.78;5128584;28;20065;-83
2023/03/10 02:55:18;;;;;;;0.17;0.17;;;;;;;5.63;73.97;98758.50;5113548;28;20034;-83
2023/03/10 02:57:44;;;;;;;0.20;0.20;;;;;;;5.60;73.98;98766.47;5119544;28;20092;-85
2023/03/10 03:00:11;;;;;;;0.13;0.13;;;;;;;5.60;74.24;98763.00;5111424;28;20088;-82
2023/03/10 03:02:37;;;;;;;0.10;0.10;;;;;;;5.61;74.12;98755.06;5117559;28;20020;-84
2023/03/10 03:05:04;;;;;;;0.20;0.20;;;;;;;5.61;73.95;98759.47;5116332;28;20037;-84
2023/03/10 03:07:30;;;;;;;0.10;0.10;;;;;;;5.59;74.03;98762.13;5115437;28;20080;-82
2023/03/10 03:09:56;;;;;;;0.10;0.10;;;;;;;5.60;74.13;98755.13;5109832;28;20035;-83
2023/03/10 03:12:22;;;;;;;0.10;0.10;;;;;;;5.60;74.01;98757.75;5111240;28;20106;-83
2023/03/10 03:14:48;;;;;;;0.10;0.10;;;;;;;5.62;74.03;98769.94;5108935;28;20516;-84
2023/03/10 03:17:14;;;;;;;0.20;0.20;;;;;;;5.63;74.07;98747.13;5110782;28;20155;-80
2023/03/10 03:19:41;;;;;;;0.20;0.20;;;;;;;5.66;74.09;98754.94;5127662;28;20521;-82
2023/03/10 03:22:07;;;;;;;0.10;0.10;;;;;;;5.68;74.16;98755.72;5117831;28;20107;-83
2023/03/10 03:24:33;;;;;;;0.20;0.20;;;;;;;5.69;74.20;98754.81;5108891;28;20114;-83
2023/03/10 03:26:59;;;;;;;0.20;0.20;;;;;;;5.66;73.92;98750.50;5111063;28;20028;-83
2023/03/10 03:29:25;;;;;;;0.10;0.10;;;;;;;5.67;74.04;98749.59;5111139;28;20059;-82
2023/03/10 03:31:51;;;;;;;0.13;0.13;;;;;;;5.65;74.15;98747.94;5111103;28;20106;-83
2023/03/10 03:34:19;;;;;;;0.10;0.10;;;;;;;5.67;73.86;98752.22;5110078;28;20027;-82
2023/03/10 03:36:46;;;;;;;0.20;0.20;;;;;;;5.69;73.93;98752.19;5114318;28;20059;-83
2023/03/10 03:39:16;;;;;;;0.25;0.25;;;;;;;5.70;73.86;98750.44;5108953;28;20019;-83
2023/03/10 03:41:42;;;;;;;0.17;0.17;;;;;;;5.68;73.99;98750.44;5116108;28;20065;-82
2023/03/10 03:44:08;;;;;;;0.17;0.17;;;;;;;5.70;73.93;98748.66;5104568;28;20036;-79
2023/03/10 03:46:35;;;;;;;0.10;0.10;;;;;;;5.67;73.92;98743.50;5102096;28;20051;-82
2023/03/10 03:49:01;;;;;;;0.20;0.20;;;;;;;5.66;74.27;98741.78;5113823;28;20032;-80
2023/03/10 03:51:27;;;;;;;0.20;0.20;;;;;;;5.60;73.89;98740.22;5101883;28;20028;-80
2023/03/10 03:53:53;;;;;;;0.10;0.10;;;;;;;5.59;73.74;98740.28;5096201;28;20043;-83
2023/03/10 03:56:19;;;;;;;0.17;0.17;;;;;;;5.57;73.70;98736.81;5101919;28;20032;-83
2023/03/10 03:58:45;;;;;;;0.10;0.10;;;;;;;5.55;74.15;98746.53;5095220;28;20048;-83
2023/03/10 04:01:12;;;;;;;0.40;0.40;;;;;;;5.58;73.82;98744.69;5095583;28;20024;-83
2023/03/10 04:03:38;;;;;;;0.10;0.10;;;;;;;5.56;74.10;98735.09;5096777;28;20097;-83
2023/03/10 04:06:06;;;;;;;2.20;1.15;;;;;;;5.58;74.05;98736.78;5108133;28;20043;-84
2023/03/10 04:08:32;;;;;;;0.10;0.10;;;;;;;5.60;74.01;98749.88;5098818;28;20031;-86
2023/03/10 04:10:58;;;;;;;0.10;0.10;;;;;;;5.60;74.08;98742.00;5100729;28;20046;-85
2023/03/10 04:13:24;;;;;;;0.10;0.10;;;;;;;5.56;73.78;98735.97;5093680;28;20130;-86
2023/03/10 04:15:58;;;;;;;1.65;0.85;;;;;;;5.62;74.07;98729.66;5095996;28;20593;-86
2023/03/10 04:18:25;;;;;;;0.10;0.10;;;;;;;5.56;74.06;98740.34;5097795;28;20032;-83
2023/03/10 04:20:51;;;;;;;0.20;0.20;;;;;;;5.56;73.85;98724.59;5108810;28;20055;-86
2023/03/10 04:23:17;;;;;;;0.20;0.20;;;;;;;5.47;73.94;98716.13;5114594;28;20031;-85
2023/03/10 04:25:43;;;;;;;0.20;0.20;;;;;;;5.43;73.63;98714.53;5107755;28;20105;-82
2023/03/10 04:28:11;;;;;;;0.13;0.13;;;;;;;5.45;74.00;98723.19;5114315;28;20038;-84
2023/03/10 04:30:39;;;;;;;0.20;0.20;;;;;;;5.45;74.04;98732.84;5106555;28;20079;-85
2023/03/10 04:33:06;;;;;;;0.10;0.10;;;;;;;5.47;74.21;98752.03;5115005;28;20404;-84
2023/03/10 04:35:33;;;;;;;0.20;0.20;;;;;;;5.41;74.02;98747.84;5108664;28;20114;-85
2023/03/10 04:37:59;;;;;;;0.10;0.10;;;;;;;5.44;73.95;98757.41;5108356;28;20054;-83
2023/03/10 04:40:25;;;;;;;0.10;0.10;;;;;;;5.44;73.73;98762.66;5095824;28;20587;-82
2023/03/10 04:42:51;;;;;;;0.20;0.20;;;;;;;5.46;73.74;98761.69;5095450;28;20458;-83
2023/03/10 04:45:18;;;;;;;0.10;0.10;;;;;;;5.47;73.82;98758.16;5101015;28;20020;-81
2023/03/10 04:47:44;;;;;;;0.10;0.10;;;;;;;5.46;73.94;98751.19;5095925;28;20040;-83
2023/03/10 04:50:11;;;;;;;0.10;0.10;;;;;;;5.41;73.70;98734.72;5105195;28;20028;-83
2023/03/10 04:52:37;;;;;;;0.13;0.13;;;;;;;5.44;73.73;98734.59;5101743;28;20397;-84
2023/03/10 04:55:04;;;;;;;0.20;0.20;;;;;;;5.39;73.68;98743.56;5107718;28;20146;-84
2023/03/10 04:57:30;;;;;;;2.53;0.90;;;;;;;5.39;73.67;98743.56;5107468;28;20377;-83
2023/03/10 04:59:56;;;;;;;0.10;0.10;;;;;;;5.39;73.76;98741.78;5100193;28;20032;-83
2023/03/10 05:02:22;;;;;;;0.10;0.10;;;;;;;5.35;73.66;98733.13;5103649;28;20047;-82
2023/03/10 05:04:48;;;;;;;0.38;0.38;;;;;;;5.32;73.52;98733.25;5092870;28;20050;-84
2023/03/10 05:07:14;;;;;;;0.20;0.20;;;;;;;5.32;73.65;98729.75;5093828;28;20455;-83
2023/03/10 05:09:41;;;;;;;0.10;0.10;;;;;;;5.28;73.69;98726.41;5108443;28;20028;-84
2023/03/10 05:12:08;;;;;;;0.13;0.13;;;;;;;5.22;73.72;98729.22;5109003;28;20051;-82
2023/03/10 05:14:36;;;;;;;0.20;0.20;;;;;;;5.22;73.82;98728.34;5101535;28;20031;-84
2023/03/10 05:17:02;;;;;;;0.13;0.13;;;;;;;5.22;73.64;98733.59;5099542;28;20032;-85
2023/03/10 05:19:34;;;;;;;0.10;0.10;;;;;;;5.23;73.85;98723.03;5093524;28;20016;-85
2023/03/10 05:22:01;;;;;;;0.20;0.20;;;;;;;5.24;73.82;98718.66;5100580;28;20055;-85
2023/03/10 05:24:27;;;;;;;0.20;0.20;;;;;;;5.16;73.56;98718.91;5091387;28;20035;-85
2023/03/10 05:26:53;;;;;;;0.20;0.20;;;;;;;5.21;73.78;98718.75;5094452;28;20052;-86
2023/03/10 05:29:19;;;;;;;0.10;0.10;;;;;;;5.18;73.86;98719.69;5094513;28;20039;-84
2023/03/10 05:31:46;;;;;;;0.20;0.20;;;;;;;5.19;73.80;98711.75;5093077;28;20024;-84
2023/03/10 05:34:13;;;;;;;0.10;0.10;;;;;;;5.23;73.90;98719.56;5093162;28;20066;-84
2023/03/10 05:36:43;;;;;;;0.10;0.10;;;;;;;5.21;73.83;98718.75;5104888;28;20043;-85
2023/03/10 05:39:10;;;;;;;0.20;0.20;;;;;;;5.21;73.98;98718.75;5102656;28;20027;-84
2023/03/10 05:41:37;;;;;;;0.20;0.20;;;;;;;5.24;73.89;98716.03;5104150;28;20113;-84
2023/03/10 05:44:04;;;;;;;0.10;0.10;;;;;;;5.21;73.87;98714.38;5101507;28;20106;-84
2023/03/10 05:46:30;;;;;;;0.30;0.30;;;;;;;5.22;73.94;98720.47;5100725;28;20035;-84
2023/03/10 05:48:57;;;;;;;0.20;0.20;;;;;;;5.19;73.60;98711.75;5100956;28;20036;-81
2023/03/10 05:51:23;;;;;;;0.20;0.20;;;;;;;5.15;73.85;98720.66;5099920;28;20016;-83
2023/03/10 05:53:49;;;;;;;0.17;0.17;;;;;;;5.10;73.68;98724.34;5097587;28;20031;-81
2023/03/10 05:56:18;;;;;;;0.13;0.13;;;;;;;5.17;73.89;98724.09;5097325;28;20494;-84
2023/03/10 05:58:46;;;;;;;0.10;0.10;;;;;;;5.13;73.84;98732.97;5097195;28;20091;-84
2023/03/10 06:01:13;;;;;;;0.10;0.10;;;;;;;5.15;73.83;98727.69;5101207;28;20023;-81
2023/03/10 06:03:39;;;;;;;0.43;0.43;;;;;;;5.14;73.98;98724.19;5096423;28;20020;-85
2023/03/10 06:06:06;;;;;;;0.13;0.13;;;;;;;5.13;73.86;98727.72;5107593;28;20035;-83
2023/03/10 06:08:33;;;;;;;0.20;0.20;;;;;;;5.13;73.94;98717.22;5109912;28;20039;-83
2023/03/10 06:10:59;;;;;;;0.10;0.10;;;;;;;5.15;73.79;98722.44;5103370;28;20385;-81
2023/03/10 06:13:26;;;;;;;0.20;0.20;;;;;;;5.11;74.10;98724.31;5101767;28;20415;-82
2023/03/10 06:15:54;;;;;;;0.30;0.30;;;;;;;5.17;74.07;98720.59;5099953;28;20393;-82
2023/03/10 06:18:20;;;;;;;0.10;0.10;;;;;;;5.16;74.07;98727.63;5097566;28;20032;-81
2023/03/10 06:20:48;;;;;;;0.13;0.13;;;;;;;5.20;74.03;98731.03;5099401;28;20059;-86
2023/03/10 06:23:16;;;;;;;0.75;0.75;;;;;;;5.17;74.13;98728.47;5100742;28;20055;-84
2023/03/10 06:25:42;;;;;;;0.10;0.10;;;;;;;5.16;74.40;98727.63;5100109;28;20028;-84
2023/03/10 06:28:10;;;;;;;0.10;0.10;;;;;;;5.18;74.23;98725.81;5096177;28;20443;-84
2023/03/10 06:30:36;;;;;;;0.20;0.20;;;;;;;5.21;74.34;98724.00;5101103;28;20047;-82
2023/03/10 06:33:02;;;;;;;0.10;0.10;;;;;;;5.19;74.30;98719.63;5109475;28;20041;-83
2023/03/10 06:35:30;;;;;;;0.20;0.20;;;;;;;5.14;73.89;98718.94;5092686;28;20054;-84
2023/03/10 06:37:56;;;;;;;0.20;0.20;;;;;;;5.17;74.19;98724.09;5095312;28;20024;-84
2023/03/10 06:40:22;;;;;;;0.20;0.20;;;;;;;5.16;74.15;98722.38;5094957;28;20106;-85
2023/03/10 06:42:48;;;;;;;1.10;0.65;;;;;;;5.17;74.21;98729.34;5095070;28;20032;-84
2023/03/10 06:45:16;;;;;;;0.10;0.10;;;;;;;5.22;74.21;98730.97;5115205;28;20043;-81
2023/03/10 06:47:43;;;;;;;0.10;0.10;;;;;;;5.22;74.37;98723.97;5119820;28;20382;-83
2023/03/10 06:50:11;;;;;;;0.10;0.10;;;;;;;5.23;74.36;98728.28;5104292;28;20036;-86
2023/03/10 06:52:37;;;;;;;0.20;0.20;;;;;;;5.30;74.27;98728.97;5103330;28;20023;-84
2023/03/10 06:55:03;;;;;;;0.10;0.10;;;;;;;5.32;74.47;98724.50;5101148;28;20035;-84
2023/03/10 06:57:29;;;;;;;0.20;0.20;;;;;;;5.31;74.46;98725.44;5100627;28;20585;-83
2023/03/10 06:59:55;;;;;;;0.20;0.20;;;;;;;5.31;74.43;98730.69;5098919;28;20016;-81
2023/03/10 07:02:22;;;;;;;0.10;0.10;;;;;;;5.32;74.37;98733.25;5097359;28;20035;-83
2023/03/10 07:04:48;;;;;;;0.20;0.20;;;;;;;5.34;74.30;98725.31;5097290;28;20034;-83
2023/03/10 07:07:14;;;;;;;0.20;0.20;;;;;;;5.34;74.35;98730.56;5096659;28;20039;-83
2023/03/10 07:09:40;;;;;;;0.20;0.20;;;;;;;5.36;74.24;98728.75;5102152;28;20029;-84
2023/03/10 07:12:07;;;;;;;0.10;0.10;;;;;;;5.40;74.22;98729.53;5110401;28;20050;-83
2023/03/10 07:14:33;;;;;;;0.17;0.17;;;;;;;5.44;74.38;98726.72;5099950;28;20051;-84
2023/03/10 07:16:59;;;;;;;0.10;0.10;;;;;;;5.48;74.47;98732.72;5103858;28;20052;-84
2023/03/10 07:19:25;;;;;;;0.20;0.20;;;;;;;5.51;74.51;98744.00;5097180;28;20081;-84
2023/03/10 07:21:51;;;;;;;0.20;0.20;;;;;;;5.57;74.69;98744.69;5096697;28;20032;-84
2023/03/10 07:24:18;;;;;;;0.20;0.20;;;;;;;5.61;74.36;98741.09;5101972;28;20028;-85
2023/03/10 07:26:44;;;;;;;0.20;0.20;;;;;;;5.63;74.29;98731.38;5116403;28;20053;-82
2023/03/10 07:29:10;;;;;;;0.20;0.20;;;;;;;5.57;74.18;98742.94;5106457;28;20031;-83
2023/03/10 07:31:36;;;;;;;0.10;0.10;;;;;;;5.62;74.10;98745.41;5114994;28;20027;-82
2023/03/10 07:34:03;;;;;;;0.10;0.10;;;;;;;5.64;74.41;98739.19;5108508;28;20035;-81
2023/03/10 07:36:29;;;;;;;0.30;0.30;;;;;;;5.66;74.43;98739.16;5115528;28;20028;-81
2023/03/10 07:38:55;;;;;;;0.20;0.20;;;;;;;5.63;74.36;98747.13;5102780;28;20405;-83
2023/03/10 07:41:22;;;;;;;0.40;0.40;;;;;;;5.59;74.23;98756.03;5109869;28;20446;-83
2023/03/10 07:43:52;;;;;;;0.45;0.45;;;;;;;5.60;74.08;98755.97;5104140;28;20055;-84
2023/03/10 07:46:19;;;;;;;2.08;1.40;;;;;;;5.56;74.29;98756.13;5113044;28;20401;-82
2023/03/10 07:48:45;;;;;;;0.20;0.20;;;;;;;5.62;74.10;98745.41;5107211;28;20020;-83
2023/03/10 07:51:11;;;;;;;0.20;0.20;;;;;;;5.63;74.25;98752.38;5115102;28;20024;-84
2023/03/10 07:53:37;;;;;;;0.20;0.20;;;;;;;5.63;74.04;98752.38;5120947;28;20031;-84
2023/03/10 07:56:09;;;;;;;0.10;0.10;;;;;;;5.65;74.38;98745.31;5118582;28;20039;-85
2023/03/10 07:58:36;;;;;;;0.20;0.20;;;;;;;5.66;74.21;98757.56;5107943;28;20020;-81
2023/03/10 08:01:02;;;;;;;0.10;0.10;;;;;;;5.70;74.21;98753.06;5102561;28;20020;-83
2023/03/10 08:03:28;;;;;;;0.10;0.10;;;;;;;5.71;74.18;98760.88;5102947;28;20032;-80
2023/03/10 08:05:55;;;;;;;0.20;0.20;;;;;;;5.71;74.29;98766.13;5106378;28;20509;-83
2023/03/10 08:08:22;;;;;;;0.20;0.20;;;;;;;5.66;74.31;98757.56;5106334;28;20566;-85
2023/03/10 08:10:48;;;;;;;0.95;0.90;;;;;;;5.67;74.20;98768.00;5104956;28;20043;-84
2023/03/10 08:13:14;;;;;;;0.13;0.13;;;;;;;5.71;74.33;98763.50;5105830;28;20115;-85
2023/03/10 08:15:40;;;;;;;0.10;0.10;;;;;;;5.71;74.36;98755.63;5105669;28;20043;-82
2023/03/10 08:18:07;;;;;;;1.75;1.65;;;;;;;5.66;74.40;98755.75;5107569;28;20032;-81
2023/03/10 08:20:35;;;;;;;0.10;0.10;;;;;;;5.74;74.30;98755.50;5103212;28;20524;-82
2023/03/10 08:23:02;;;;;;;0.10;0.10;;;;;;;5.74;74.29;98760.75;5105008;28;20032;-81
2023/03/10 08:25:28;;;;;;;0.10;0.10;;;;;;;5.73;74.32;98766.94;5115360;28;20023;-81
2023/03/10 08:27:54;;;;;;;0.57;0.57;;;;;;;5.77;74.54;98765.94;5111621;28;20047;-82
2023/03/10 08:30:20;;;;;;;0.20;0.20;;;;;;;5.77;74.28;98765.94;5112702;28;20225;-83
2023/03/10 08:32:50;;;;;;;0.20;0.20;;;;;;;5.79;74.30;98764.09;5106988;28;20024;-82
2023/03/10 08:35:16;;;;;;;0.10;0.10;;;;;;;5.79;74.38;98761.47;5111479;28;20524;-83
2023/03/10 08:37:42;;;;;;;0.25;0.25;;;;;;;5.80;74.28;98759.72;5102409;28;20505;-84
2023/03/10 08:40:10;;;;;;;0.10;0.10;;;;;;;5.76;74.26;98766.84;5104511;28;20555;-83
2023/03/10 08:42:36;;;;;;;0.20;0.20;;;;;;;5.73;74.48;98764.31;5125021;28;20027;-84
2023/03/10 08:45:03;;;;;;;0.17;0.17;;;;;;;5.77;74.27;98765.06;5119334;28;20091;-84
2023/03/10 08:47:29;;;;;;;0.10;0.10;;;;;;;5.73;74.48;98764.31;5119343;28;20027;-84
2023/03/10 08:49:56;;;;;;;0.10;0.10;;;;;;;5.68;74.33;98768.84;5113509;28;20022;-82
2023/03/10 08:52:23;;;;;;;1.10;0.90;;;;;;;5.71;74.43;98760.88;5103633;28;20095;-83
2023/03/10 08:54:49;;;;;;;0.20;0.20;;;;;;;5.76;74.30;98764.22;5105354;28;20084;-82
2023/03/10 08:57:15;;;;;;;0.70;0.70;;;;;;;5.73;74.16;98780.09;5114869;28;20104;-83
2023/03/10 08:59:41;;;;;;;0.28;0.28;;;;;;;5.75;74.44;98766.88;5102256;28;20052;-84
2023/03/10 09:02:09;;;;;;;0.10;0.10;;;;;;;5.73;74.39;98779.22;5107203;28;20028;-83
2023/03/10 09:04:35;;;;;;;0.10;0.10;;;;;;;5.72;74.22;98781.00;5103492;28;20087;-83
2023/03/10 09:07:02;;;;;;;0.20;0.20;;;;;;;5.71;74.16;98781.03;5108797;28;20031;-81
2023/03/10 09:09:28;;;;;;;0.10;0.10;;;;;;;5.74;74.17;98784.41;5105585;28;20016;-84
2023/03/10 09:11:54;;;;;;;0.10;0.10;;;;;;;5.79;74.40;98786.88;5100666;28;20035;-83
2023/03/10 09:14:20;;;;;;;0.10;0.10;;;;;;;5.80;74.29;98781.56;5099246;28;20055;-83
2023/03/10 09:16:46;;;;;;;0.10;0.10;;;;;;;5.78;74.19;98780.78;5105742;28;20027;-83
2023/03/10 09:19:12;;;;;;;0.52;0.20;;;;;;;5.78;74.16;98783.41;5105972;28;20032;-83
2023/03/10 09:21:38;;;;;;;0.38;0.38;;;;;;;5.74;74.21;98784.41;5115333;28;20036;-83
2023/03/10 09:24:05;;;;;;;0.15;0.15;;;;;;;5.72;74.29;98788.88;5100697;28;20110;-83
2023/03/10 09:26:31;;;;;;;0.10;0.10;;;;;;;5.75;74.27;98786.13;5114685;28;20016;-84
2023/03/10 09:28:57;;;;;;;0.10;0.10;;;;;;;5.79;74.42;98789.53;5107885;28;20031;-83
2023/03/10 09:31:30;;;;;;;0.20;0.20;;;;;;;5.85;74.39;98791.94;5112698;28;20106;-83
2023/03/10 09:33:56;;;;;;;0.10;0.10;;;;;;;5.87;74.10;98791.88;5122378;28;20034;-83
2023/03/10 09:36:22;;;;;;;0.10;0.10;;;;;;;5.90;74.16;98797.06;5107402;28;20031;-82
2023/03/10 09:38:48;;;;;;;0.10;0.10;;;;;;;5.88;74.00;98789.22;5107912;28;20512;-83
2023/03/10 09:41:43;;;;;;;0.10;0.10;;;;;;;6.03;74.30;98797.50;5115567;28;20036;-85
2023/03/10 09:44:48;;;;;;;0.10;0.10;;;;;;;6.09;74.07;98802.56;5107148;28;20028;-84
2023/03/10 09:52:46;;;;;;;0.20;0.20;;;;;;;6.25;74.23;98813.41;5108684;27;20421;-81
2023/03/10 09:55:19;;;;;;;;;;;;;;;6.38;74.10;98814.72;5086374;28;20032;-84
2023/03/10 09:57:48;;;;;;;0.20;0.20;;;;;;;6.30;74.12;98819.38;5080727;28;19916;-84
2023/03/10 10:00:22;;;;;;;0.13;0.13;;;;;;;6.33;74.26;98824.53;5079068;28;20032;-85
2023/03/10 10:02:57;;;;;;;0.10;0.10;;;;;;;6.26;73.93;98825.66;5076533;28;20110;-82
2023/03/10 10:05:30;;;;;;;0.10;0.10;;;;;;;6.28;73.97;98826.44;5090818;28;20036;-83
2023/03/10 10:07:58;;;;;;;0.20;0.20;;;;;;;6.27;74.11;98832.63;5094335;28;20432;-84
2023/03/10 10:10:31;;;;;;;0.10;0.10;;;;;;;6.28;74.03;98831.69;5094549;28;20059;-80
2023/03/10 10:13:06;;;;;;;0.10;0.10;;;;;;;6.21;73.74;98838.09;5079576;28;20036;-82
2023/03/10 10:15:36;;;;;;;0.15;0.15;;;;;;;6.05;73.51;98838.63;5092400;28;20115;-83
2023/03/10 10:18:12;;;;;;;0.20;0.20;;;;;;;6.12;73.74;98845.38;5094397;28;20077;-82
2023/03/10 10:23:23;;;;;;;0.20;0.20;;;;;;;6.08;73.60;98846.41;5079067;27;1882336;-85
2023/03/10 10:25:49;;;;;;;0.10;0.10;;;;;;;6.08;73.76;98849.03;5093645;28;20111;-84
2023/03/10 10:28:35;;;;;;;0.10;0.10;;;;;;;6.07;73.50;98849.94;5097112;28;20025;-83
2023/03/10 10:31:20;;;;;;;0.10;0.10;;;;;;;6.08;73.20;98856.94;5103339;28;20044;-83
2023/03/10 10:34:17;;;;;;;0.10;0.10;;;;;;;6.07;73.50;98851.69;5092736;28;20031;-82
2023/03/10 10:36:51;;;;;;;0.10;0.10;;;;;;;6.00;73.47;98851.06;5089788;28;20398;-82
2023/03/10 10:42:23;;;;;;;0.10;0.10;;;;;;;5.94;73.52;98856.47;5099961;27;1218940;-81
2023/03/10 10:44:52;;;;;;;0.20;0.20;;;;;;;5.83;73.48;98860.34;5110782;28;20024;-83
2023/03/10 10:47:48;;;;;;;0.10;0.10;;;;;;;5.92;73.43;98860.91;5111953;28;20093;-83
2023/03/10 10:53:19;;;;;;;0.10;0.10;;;;;;;5.90;73.32;98850.47;5072349;27;20398;-82
2023/03/10 10:55:57;;;;;;;0.15;0.15;;;;;;;5.83;73.34;98854.19;5069527;28;20494;-82
2023/03/10 10:58:40;;;;;;;0.15;0.15;;;;;;;5.92;73.40;98874.94;5071780;28;20025;-82
2023/03/10 11:01:11;;;;;;;0.20;0.20;;;;;;;5.89;73.59;98872.41;5068391;28;20025;-81
2023/03/10 11:09:01;;;;;;;0.20;0.20;;;;;;;5.92;73.41;98884.56;5110977;27;20383;-81
2023/03/10 11:14:30;;;;;;;0.10;0.10;;;;;;;6.01;73.50;98888.72;5109901;27;1195112;-82
2023/03/10 11:17:07;;;;;;;0.20;0.20;;;;;;;6.03;73.68;98884.28;5129607;28;20043;-83
2023/03/10 11:20:13;;;;;;;0.20;0.20;;;;;;;6.07;73.43;98885.88;5131332;27;20112;-84
2023/03/10 11:22:48;;;;;;;0.10;0.10;;;;;;;6.01;73.55;98889.59;5126666;27;20035;-84
2023/03/10 11:30:36;;;;;;;0.10;0.10;;;;;;;6.06;73.41;98881.56;5092968;27;20417;-84
2023/03/10 11:35:44;;;;;;;0.25;0.25;;;;;;;6.09;73.58;98882.31;5060611;27;1867092;-84
2023/03/10 11:38:41;;;;;;;0.20;0.20;;;;;;;6.19;73.58;98874.94;5132273;28;20027;-83
2023/03/10 11:41:18;;;;;;;0.20;0.20;;;;;;;6.22;73.42;98866.09;5134140;28;20396;-82
2023/03/10 11:44:24;;;;;;;0.13;0.13;;;;;;;6.33;73.50;98861.34;5128364;28;20068;-83
2023/03/10 11:47:00;;;;;;;0.13;0.13;;;;;;;6.34;73.36;98865.69;5124012;28;20039;-83
2023/03/10 11:49:35;;;;;;;0.10;0.10;;;;;;;6.42;73.92;98868.91;5119539;28;20045;-85
2023/03/10 11:52:13;;;;;;;0.20;0.20;;;;;;;6.48;73.43;98871.34;5124246;28;20031;-86
2023/03/10 11:54:48;;;;;;;0.20;0.20;;;;;;;6.43;73.27;98870.63;5136006;28;20032;-86
2023/03/10 11:57:18;;;;;;;0.20;0.20;;;;;;;6.37;73.25;98881.38;5131458;28;20113;-86
2023/03/10 11:59:54;;;;;;;0.20;0.20;;;;;;;6.34;73.13;98868.31;5129969;28;20076;-86
2023/03/10 12:02:46;;;;;;;0.20;0.20;;;;;;;6.20;72.62;98879.31;5132341;28;20090;-84
2023/03/10 12:05:22;;;;;;;0.20;0.20;;;;;;;6.21;72.57;98874.94;5132870;28;20070;-83
2023/03/10 12:07:52;;;;;;;0.17;0.17;;;;;;;6.15;72.60;98887.34;5129940;28;20073;-82
2023/03/10 12:10:20;;;;;;;0.10;0.10;;;;;;;6.10;72.50;98899.78;5135012;28;20119;-84
2023/03/10 12:12:48;;;;;;;0.20;0.20;;;;;;;6.07;72.80;98909.53;5131193;28;20023;-83
2023/03/10 12:17:54;;;;;;;0.20;0.20;;;;;;;6.05;72.75;98890.34;5104248;27;20380;-83
2023/03/10 12:47:29;;;;;;;0.10;0.10;;;;;;;5.90;72.21;98902.19;5136238;27;20375;-85
2023/03/10 12:50:28;;;;;;;0.40;0.40;;;;;;;5.81;72.17;98904.19;5124690;28;20039;-85
2023/03/10 12:53:04;;;;;;;0.10;0.10;;;;;;;5.68;72.19;98913.34;5128745;28;20031;-85
2023/03/10 12:55:32;;;;;;;0.20;0.20;;;;;;;5.58;71.96;98922.44;5096137;27;20016;-86
2023/03/10 12:58:14;;;;;;;0.10;0.10;;;;;;;5.50;72.08;98946.31;5100886;28;20036;-86